Mathiston, Mississippi
Current Conditions -  °F | °C
As of 10:15 PM on Sunday 23 Nov 2014 (Local Time) from KSTF Reporting Station
NA  
Wind Chill: 61°   Ceiling: NA
Heat Index: 61°   Visibility: NA
Dew Point: 57°   Wind: 3mph
Humidity: 88%   Direction: 190°S
Pressure: 29.59"   Gusts: NA
Location:  33.54°N, 89.12°W
Report Text: KSTF 240415Z AUTO 19003KT 16/14 A2959 RMK AO2 PWINO
Loading
Personal Weather Stations






























Interactive Weather Map New forecast layout! Learn more

10-Day Weather Forecast

Advertisements
Track Severe Weather on mobile